Time;durP1;ratioP1;P1;durP2;ratioP2;P2;SDS_P1;SDS_P2;PMS_P1;PMS_P2;Temp;Humidity;BMP_temperature;BMP_pressure;BME280_temperature;BME280_humidity;BME280_pressure;Samples;Min_cycle;Max_cycle;Signal;HPM_P1;HPM_P2
2021/10/03 00:01:54;;;;;;;;;4.67;4.00;;;;;;;;5136462;27;11449;-81
2021/10/03 00:04:20;;;;;;;;;5.25;5.25;;;;;;;;5135831;27;8781;-83
2021/10/03 00:06:45;;;;;;;;;3.00;2.00;;;;;;;;5137710;27;8814;-81
2021/10/03 00:09:11;;;;;;;;;5.00;5.00;;;;;;;;5138053;27;8788;-81
2021/10/03 00:11:36;;;;;;;;;5.00;5.00;;;;;;;;5138213;27;8811;-81
2021/10/03 00:14:02;;;;;;;;;4.67;4.67;;;;;;;;5137837;27;8781;-80
2021/10/03 00:16:27;;;;;;;;;3.67;3.00;;;;;;;;5137617;27;8808;-80
2021/10/03 00:18:53;;;;;;;;;4.00;4.00;;;;;;;;5136411;27;9580;-80
2021/10/03 00:21:18;;;;;;;;;3.67;3.67;;;;;;;;5137636;27;8808;-81
2021/10/03 00:23:43;;;;;;;;;6.33;5.33;;;;;;;;5137745;27;9571;-81
2021/10/03 00:26:09;;;;;;;;;5.00;4.00;;;;;;;;5137594;27;8788;-80
2021/10/03 00:28:34;;;;;;;;;4.00;4.00;;;;;;;;5136244;27;8889;-80
2021/10/03 00:30:59;;;;;;;;;4.67;4.67;;;;;;;;5151937;27;8794;-82
2021/10/03 00:33:24;;;;;;;;;3.67;3.67;;;;;;;;5157336;27;8798;-81
2021/10/03 00:35:50;;;;;;;;;3.33;3.33;;;;;;;;5158496;27;8809;-81
2021/10/03 00:38:17;;;;;;;;;4.33;4.00;;;;;;;;5158097;27;8813;-81
2021/10/03 00:40:43;;;;;;;;;4.75;4.75;;;;;;;;5158979;27;8847;-82
2021/10/03 00:43:09;;;;;;;;;4.67;4.67;;;;;;;;5158243;27;8762;-81
2021/10/03 00:45:34;;;;;;;;;4.00;4.00;;;;;;;;5158102;27;9596;-83
2021/10/03 00:48:00;;;;;;;;;5.33;5.33;;;;;;;;5156448;27;11448;-83
2021/10/03 00:50:26;;;;;;;;;4.67;4.67;;;;;;;;5158005;27;8809;-82
2021/10/03 00:52:51;;;;;;;;;5.50;5.50;;;;;;;;5156528;27;9454;-82
2021/10/03 00:55:17;;;;;;;;;6.67;6.33;;;;;;;;5158024;27;8784;-82
2021/10/03 00:57:44;;;;;;;;;5.00;5.00;;;;;;;;5157999;27;8857;-83
2021/10/03 01:00:11;;;;;;;;;7.00;5.25;;;;;;;;5157936;27;8834;-82
2021/10/03 01:02:36;;;;;;;;;6.75;4.25;;;;;;;;5157620;27;8790;-80
2021/10/03 01:05:01;;;;;;;;;7.33;7.33;;;;;;;;5157722;27;8790;-81
2021/10/03 01:07:27;;;;;;;;;5.00;5.00;;;;;;;;5157541;27;8777;-81
2021/10/03 01:09:52;;;;;;;;;8.33;8.33;;;;;;;;5157888;27;8847;-82
2021/10/03 01:12:17;;;;;;;;;6.00;6.00;;;;;;;;5158230;27;8793;-83
2021/10/03 01:14:43;;;;;;;;;6.67;6.67;;;;;;;;5157809;27;8831;-83
2021/10/03 01:17:08;;;;;;;;;6.00;6.00;;;;;;;;5159858;27;8802;-83
2021/10/03 01:19:35;;;;;;;;;5.00;5.00;;;;;;;;5160917;27;8835;-82
2021/10/03 01:22:00;;;;;;;;;8.00;8.00;;;;;;;;5161092;27;8746;-81
2021/10/03 01:24:28;;;;;;;;;6.33;6.33;;;;;;;;5161282;27;8842;-83
2021/10/03 01:26:53;;;;;;;;;8.00;6.50;;;;;;;;5161328;27;8754;-83
2021/10/03 01:29:19;;;;;;;;;5.00;5.00;;;;;;;;5159562;27;8911;-83
2021/10/03 01:31:44;;;;;;;;;9.00;8.00;;;;;;;;5138860;27;8877;-83
2021/10/03 01:34:09;;;;;;;;;7.00;7.00;;;;;;;;5137971;27;8907;-82
2021/10/03 01:36:35;;;;;;;;;6.00;6.00;;;;;;;;5118124;28;8913;-82
2021/10/03 01:39:00;;;;;;;;;7.00;6.00;;;;;;;;5119512;27;8806;-83
2021/10/03 01:41:25;;;;;;;;;6.00;6.00;;;;;;;;5119466;27;8868;-83
2021/10/03 01:43:51;;;;;;;;;6.00;6.00;;;;;;;;5119504;27;9623;-83
2021/10/03 01:46:16;;;;;;;;;6.33;6.33;;;;;;;;5119549;27;9578;-80
2021/10/03 01:48:41;;;;;;;;;7.00;6.00;;;;;;;;5119077;27;8799;-82
2021/10/03 01:51:08;;;;;;;;;7.00;7.00;;;;;;;;5119401;27;8786;-82
2021/10/03 01:53:38;;;;;;;;;7.75;7.00;;;;;;;;5119352;28;8724;-83
2021/10/03 01:56:04;;;;;;;;;7.00;7.00;;;;;;;;5119250;27;8779;-80
2021/10/03 01:58:31;;;;;;;;;6.50;6.50;;;;;;;;5119233;27;8803;-82
2021/10/03 02:01:08;;;;;;;;;6.75;6.75;;;;;;;;5119199;27;8791;-83
2021/10/03 02:03:33;;;;;;;;;7.75;7.75;;;;;;;;5119042;27;8759;-82
2021/10/03 02:05:59;;;;;;;;;8.00;8.00;;;;;;;;5117797;28;8837;-81
2021/10/03 02:08:24;;;;;;;;;8.00;7.33;;;;;;;;5119173;27;8798;-83
2021/10/03 02:10:51;;;;;;;;;9.33;7.67;;;;;;;;5119084;27;8933;-80
2021/10/03 02:13:17;;;;;;;;;7.00;6.75;;;;;;;;5119149;27;8723;-83
2021/10/03 02:15:43;;;;;;;;;7.00;7.00;;;;;;;;5119076;27;8775;-82
2021/10/03 02:18:10;;;;;;;;;5.50;5.50;;;;;;;;5117434;28;8811;-82
2021/10/03 02:20:35;;;;;;;;;7.25;7.25;;;;;;;;5118778;27;9725;-83
2021/10/03 02:23:02;;;;;;;;;9.33;8.67;;;;;;;;5117387;28;8822;-80
2021/10/03 02:25:27;;;;;;;;;13.25;8.25;;;;;;;;5118848;27;8829;-83
2021/10/03 02:27:52;;;;;;;;;8.00;8.00;;;;;;;;5117233;27;8815;-83
2021/10/03 02:30:17;;;;;;;;;7.67;7.67;;;;;;;;5134531;27;8813;-80
2021/10/03 02:32:43;;;;;;;;;9.33;7.67;;;;;;;;5160229;27;8762;-81
2021/10/03 02:35:10;;;;;;;;;7.33;7.00;;;;;;;;5158652;27;8881;-82
2021/10/03 02:37:36;;;;;;;;;9.75;9.00;;;;;;;;5159811;27;8806;-82
2021/10/03 02:40:02;;;;;;;;;11.33;8.00;;;;;;;;5160003;27;8927;-84
2021/10/03 02:42:28;;;;;;;;;8.25;8.25;;;;;;;;5158552;27;8962;-82
2021/10/03 02:44:53;;;;;;;;;11.00;11.00;;;;;;;;5160007;27;8900;-83
2021/10/03 02:47:18;;;;;;;;;10.67;9.67;;;;;;;;5158483;27;8874;-81
2021/10/03 02:49:44;;;;;;;;;9.67;8.00;;;;;;;;5159421;27;8912;-79
2021/10/03 02:52:10;;;;;;;;;7.75;7.75;;;;;;;;5159836;27;8831;-83
2021/10/03 02:54:36;;;;;;;;;8.00;8.00;;;;;;;;5159802;27;9497;-82
2021/10/03 02:57:02;;;;;;;;;9.75;8.25;;;;;;;;5159829;27;8742;-83
2021/10/03 02:59:28;;;;;;;;;9.75;9.25;;;;;;;;5158121;27;8809;-82
2021/10/03 03:01:53;;;;;;;;;12.00;11.33;;;;;;;;5159715;27;8770;-81
2021/10/03 03:04:18;;;;;;;;;10.00;10.00;;;;;;;;5157864;27;8961;-82
2021/10/03 03:06:43;;;;;;;;;12.00;12.00;;;;;;;;5159464;27;8790;-82
2021/10/03 03:09:08;;;;;;;;;10.67;10.67;;;;;;;;5159587;27;8906;-79
2021/10/03 03:11:34;;;;;;;;;9.00;9.00;;;;;;;;5158135;27;8875;-83
2021/10/03 03:13:59;;;;;;;;;11.67;11.67;;;;;;;;5159527;27;8866;-82
2021/10/03 03:16:24;;;;;;;;;13.00;12.67;;;;;;;;5157766;27;8874;-82
2021/10/03 03:18:49;;;;;;;;;12.00;12.00;;;;;;;;5159100;27;8862;-82
2021/10/03 03:21:15;;;;;;;;;11.00;10.00;;;;;;;;5157912;27;8806;-82
2021/10/03 03:23:40;;;;;;;;;11.67;11.00;;;;;;;;5157842;27;8821;-83
2021/10/03 03:26:05;;;;;;;;;10.00;10.00;;;;;;;;5157824;27;8805;-81
2021/10/03 03:28:31;;;;;;;;;13.00;12.00;;;;;;;;5159305;27;8898;-82
2021/10/03 03:30:56;;;;;;;;;12.67;12.00;;;;;;;;5144890;27;8792;-82
2021/10/03 03:33:21;;;;;;;;;8.33;8.33;;;;;;;;5136687;27;9527;-82
2021/10/03 03:35:46;;;;;;;;;10.67;10.67;;;;;;;;5122337;27;8838;-82
2021/10/03 03:38:11;;;;;;;;;13.00;12.00;;;;;;;;5117139;27;8838;-80
2021/10/03 03:40:37;;;;;;;;;12.33;12.33;;;;;;;;5117177;27;9527;-81
2021/10/03 03:43:02;;;;;;;;;14.00;14.00;;;;;;;;5117615;27;8875;-81
2021/10/03 03:45:28;;;;;;;;;11.67;11.67;;;;;;;;5117659;27;8820;-80
2021/10/03 03:47:53;;;;;;;;;12.00;12.00;;;;;;;;5117514;27;8798;-81
2021/10/03 03:50:18;;;;;;;;;14.67;14.67;;;;;;;;5117340;27;8841;-79
2021/10/03 03:52:44;;;;;;;;;10.00;10.00;;;;;;;;5117359;27;9612;-82
2021/10/03 03:55:09;;;;;;;;;12.67;12.67;;;;;;;;5115997;28;8811;-82
2021/10/03 03:57:35;;;;;;;;;12.00;11.67;;;;;;;;5117654;27;9625;-81
2021/10/03 04:00:00;;;;;;;;;13.67;13.67;;;;;;;;5116017;28;8822;-79
2021/10/03 04:02:26;;;;;;;;;15.00;15.00;;;;;;;;5117126;28;8862;-82
2021/10/03 04:04:51;;;;;;;;;13.00;12.33;;;;;;;;5117048;27;8834;-82
2021/10/03 04:07:18;;;;;;;;;13.00;12.67;;;;;;;;5117276;27;8818;-82
2021/10/03 04:09:43;;;;;;;;;13.00;13.00;;;;;;;;5117257;27;8790;-81
2021/10/03 04:12:08;;;;;;;;;11.00;10.67;;;;;;;;5115890;28;8823;-83
2021/10/03 04:14:34;;;;;;;;;15.00;13.00;;;;;;;;5117242;27;8775;-81
2021/10/03 04:16:59;;;;;;;;;13.67;13.67;;;;;;;;5116966;27;8811;-80
2021/10/03 04:19:25;;;;;;;;;14.67;12.67;;;;;;;;5116731;27;11544;-81
2021/10/03 04:21:50;;;;;;;;;13.33;13.00;;;;;;;;5116927;28;8791;-80
2021/10/03 04:24:15;;;;;;;;;12.00;11.67;;;;;;;;5117104;27;8799;-82
2021/10/03 04:26:40;;;;;;;;;15.00;14.67;;;;;;;;5117052;27;8820;-81
2021/10/03 04:29:06;;;;;;;;;14.67;14.33;;;;;;;;5115779;28;8807;-80
2021/10/03 04:31:31;;;;;;;;;9.67;9.33;;;;;;;;5154965;27;8828;-81
2021/10/03 04:33:57;;;;;;;;;12.67;11.00;;;;;;;;5157994;27;8785;-82
2021/10/03 04:36:22;;;;;;;;;11.67;11.67;;;;;;;;5157974;27;8829;-81
2021/10/03 04:38:48;;;;;;;;;13.00;12.00;;;;;;;;5158202;27;8810;-82
2021/10/03 04:41:13;;;;;;;;;14.67;13.33;;;;;;;;5158333;27;9580;-80
2021/10/03 04:43:38;;;;;;;;;12.33;12.00;;;;;;;;5158212;27;8813;-82
2021/10/03 04:46:03;;;;;;;;;12.67;12.67;;;;;;;;5136393;27;8831;-79
2021/10/03 04:48:28;;;;;;;;;13.00;13.00;;;;;;;;5116476;27;8849;-80
2021/10/03 04:50:54;;;;;;;;;14.33;14.33;;;;;;;;5118648;27;8888;-80
2021/10/03 04:53:19;;;;;;;;;10.67;10.33;;;;;;;;5120258;27;8819;-82
2021/10/03 04:55:45;;;;;;;;;16.00;13.33;;;;;;;;5120206;27;8783;-81
2021/10/03 04:58:10;;;;;;;;;13.33;13.33;;;;;;;;5120093;27;9652;-81
2021/10/03 05:00:35;;;;;;;;;12.00;12.00;;;;;;;;5118826;28;11645;-81
2021/10/03 05:03:01;;;;;;;;;14.67;13.33;;;;;;;;5119657;27;8952;-80
2021/10/03 05:05:26;;;;;;;;;12.33;12.33;;;;;;;;5119831;27;9635;-80
2021/10/03 05:07:51;;;;;;;;;13.67;12.33;;;;;;;;5119783;27;8803;-80
2021/10/03 05:10:16;;;;;;;;;11.33;10.33;;;;;;;;5119995;27;8949;-82
2021/10/03 05:12:41;;;;;;;;;16.00;14.33;;;;;;;;5120062;27;8898;-81
2021/10/03 05:15:07;;;;;;;;;12.33;11.00;;;;;;;;5120003;27;8827;-80
2021/10/03 05:17:33;;;;;;;;;12.00;12.00;;;;;;;;5119732;27;8884;-82
2021/10/03 05:19:58;;;;;;;;;9.00;9.00;;;;;;;;5119610;27;8935;-81
2021/10/03 05:22:24;;;;;;;;;11.00;9.33;;;;;;;;5119651;27;8830;-80
2021/10/03 05:24:50;;;;;;;;;14.50;14.50;;;;;;;;5118351;28;8807;-81
2021/10/03 05:27:15;;;;;;;;;13.33;12.00;;;;;;;;5119774;27;8806;-82
2021/10/03 05:29:40;;;;;;;;;12.67;12.67;;;;;;;;5124795;27;8846;-79
2021/10/03 05:32:06;;;;;;;;;11.67;11.67;;;;;;;;5161323;27;8786;-81
2021/10/03 05:34:31;;;;;;;;;11.33;11.33;;;;;;;;5160886;27;8785;-81
2021/10/03 05:36:56;;;;;;;;;13.00;12.00;;;;;;;;5159577;27;8821;-81
2021/10/03 05:39:21;;;;;;;;;11.00;10.00;;;;;;;;5160700;27;9005;-80
2021/10/03 05:41:46;;;;;;;;;13.33;12.00;;;;;;;;5160825;27;8810;-81
2021/10/03 05:44:12;;;;;;;;;18.33;15.00;;;;;;;;5160841;27;8858;-82
2021/10/03 05:46:37;;;;;;;;;14.00;13.00;;;;;;;;5160812;27;8817;-81
2021/10/03 05:49:02;;;;;;;;;12.33;11.67;;;;;;;;5160328;27;8801;-80
2021/10/03 05:51:27;;;;;;;;;13.67;13.67;;;;;;;;5159194;27;8814;-80
2021/10/03 05:53:53;;;;;;;;;13.67;13.67;;;;;;;;5160682;27;8782;-79
2021/10/03 05:56:18;;;;;;;;;12.00;11.67;;;;;;;;5160734;27;8894;-80
2021/10/03 05:58:43;;;;;;;;;12.67;11.33;;;;;;;;5160388;27;8809;-81
2021/10/03 06:01:08;;;;;;;;;14.00;12.67;;;;;;;;5159198;27;8822;-80
2021/10/03 06:03:33;;;;;;;;;15.00;14.00;;;;;;;;5159146;27;8805;-79
2021/10/03 06:05:59;;;;;;;;;14.33;14.00;;;;;;;;5159259;27;9215;-80
2021/10/03 06:08:24;;;;;;;;;13.33;12.67;;;;;;;;5158879;27;8813;-79
2021/10/03 06:10:49;;;;;;;;;16.67;15.00;;;;;;;;5154182;27;8985;-80
2021/10/03 06:13:14;;;;;;;;;14.33;14.33;;;;;;;;5139635;27;8869;-80
2021/10/03 06:15:43;;;;;;;;;14.67;14.67;;;;;;;;5139126;27;8828;-80
2021/10/03 06:18:09;;;;;;;;;13.25;12.50;;;;;;;;5133464;27;8941;-79
2021/10/03 06:20:34;;;;;;;;;15.00;14.67;;;;;;;;5118715;27;8964;-81
2021/10/03 06:22:59;;;;;;;;;14.00;13.33;;;;;;;;5120652;27;9219;-81
2021/10/03 06:25:24;;;;;;;;;16.33;16.33;;;;;;;;5124223;27;8811;-80
2021/10/03 06:27:50;;;;;;;;;10.00;9.00;;;;;;;;5118848;27;8814;-80
2021/10/03 06:30:15;;;;;;;;;5.67;4.33;;;;;;;;5120372;27;8908;-78
2021/10/03 06:32:40;;;;;;;;;5.00;5.00;;;;;;;;5118478;27;8873;-78
2021/10/03 06:35:06;;;;;;;;;3.00;3.00;;;;;;;;5118305;27;8803;-78
2021/10/03 06:37:31;;;;;;;;;8.33;8.00;;;;;;;;5118412;27;8847;-78
2021/10/03 06:39:57;;;;;;;;;12.00;9.33;;;;;;;;5119728;27;8828;-77
2021/10/03 06:42:22;;;;;;;;;8.67;8.67;;;;;;;;5132248;27;9733;-77
2021/10/03 06:44:47;;;;;;;;;8.33;8.33;;;;;;;;5139189;27;8784;-78
2021/10/03 06:47:12;;;;;;;;;8.00;8.00;;;;;;;;5129496;27;8808;-78
2021/10/03 06:49:42;;;;;;;;;0.00;0.00;;;;;;;;5128426;27;8820;-78
2021/10/03 06:52:08;;;;;;;;;0.00;0.00;;;;;;;;5135378;27;8789;-79
2021/10/03 06:54:33;;;;;;;;;0.00;0.00;;;;;;;;5138910;27;8780;-79
2021/10/03 06:56:59;;;;;;;;;0.00;0.00;;;;;;;;5137571;27;8808;-80
2021/10/03 06:59:24;;;;;;;;;0.00;0.00;;;;;;;;5138949;27;8933;-78
2021/10/03 07:01:50;;;;;;;;;0.00;0.00;;;;;;;;5138847;27;9579;-78
2021/10/03 07:04:15;;;;;;;;;0.00;0.00;;;;;;;;5132864;27;9575;-78
2021/10/03 07:06:40;;;;;;;;;0.00;0.00;;;;;;;;5130956;27;8846;-78
2021/10/03 07:09:05;;;;;;;;;0.00;0.00;;;;;;;;5135842;27;8817;-79
2021/10/03 07:11:31;;;;;;;;;1.00;1.00;;;;;;;;5138780;27;8792;-77
2021/10/03 07:13:56;;;;;;;;;1.33;1.00;;;;;;;;5138654;27;9530;-78
2021/10/03 07:16:22;;;;;;;;;2.00;2.00;;;;;;;;5138519;27;8808;-80
2021/10/03 07:18:47;;;;;;;;;4.00;3.67;;;;;;;;5137095;27;8947;-79
2021/10/03 07:21:12;;;;;;;;;3.00;3.00;;;;;;;;5141639;27;8804;-77
2021/10/03 07:23:38;;;;;;;;;1.00;1.00;;;;;;;;5138984;27;8831;-79
2021/10/03 07:26:03;;;;;;;;;0.67;0.67;;;;;;;;5138497;27;8808;-79
2021/10/03 07:28:29;;;;;;;;;1.00;1.00;;;;;;;;5139735;27;8856;-79
2021/10/03 07:30:54;;;;;;;;;0.00;0.00;;;;;;;;5147862;27;8859;-76
2021/10/03 07:33:20;;;;;;;;;0.00;0.00;;;;;;;;5146283;27;8838;-78
2021/10/03 07:35:46;;;;;;;;;1.00;1.00;;;;;;;;5133563;27;8796;-79
2021/10/03 07:38:11;;;;;;;;;1.50;1.25;;;;;;;;5133068;27;8813;-79
2021/10/03 07:40:37;;;;;;;;;1.00;1.00;;;;;;;;5128827;27;8808;-79
2021/10/03 07:43:02;;;;;;;;;3.00;2.33;;;;;;;;5128720;27;8801;-79
2021/10/03 07:45:27;;;;;;;;;4.00;4.00;;;;;;;;5130244;27;8831;-79
2021/10/03 07:47:53;;;;;;;;;1.67;1.67;;;;;;;;5131662;27;8844;-79
2021/10/03 07:50:18;;;;;;;;;1.00;1.00;;;;;;;;5124937;27;8898;-79
2021/10/03 07:52:43;;;;;;;;;2.67;1.00;;;;;;;;5119360;27;9618;-79
2021/10/03 07:55:08;;;;;;;;;1.00;1.00;;;;;;;;5120674;27;8814;-79
2021/10/03 07:57:35;;;;;;;;;2.67;1.67;;;;;;;;5121087;27;8803;-78
2021/10/03 08:00:00;;;;;;;;;0.75;0.75;;;;;;;;5117765;27;8821;-79
2021/10/03 08:02:25;;;;;;;;;0.00;0.00;;;;;;;;5120689;27;8847;-79
2021/10/03 08:04:50;;;;;;;;;0.00;0.00;;;;;;;;5128157;27;8806;-78
2021/10/03 08:07:16;;;;;;;;;2.00;1.00;;;;;;;;5144424;27;10155;-78
2021/10/03 08:09:42;;;;;;;;;1.33;1.00;;;;;;;;5150383;27;8799;-78
2021/10/03 08:12:07;;;;;;;;;0.75;0.75;;;;;;;;5142128;27;8756;-79
2021/10/03 08:14:32;;;;;;;;;1.00;1.00;;;;;;;;5139247;27;8875;-80
2021/10/03 08:16:58;;;;;;;;;2.00;2.00;;;;;;;;5135041;27;8850;-79
2021/10/03 08:19:23;;;;;;;;;2.33;2.00;;;;;;;;5116965;27;8929;-79
2021/10/03 08:21:48;;;;;;;;;4.33;4.33;;;;;;;;5115372;27;9290;-80
2021/10/03 08:24:14;;;;;;;;;8.33;7.00;;;;;;;;5126712;27;8921;-80
2021/10/03 08:26:39;;;;;;;;;7.00;7.00;;;;;;;;5137782;27;8843;-80
2021/10/03 08:29:04;;;;;;;;;7.00;7.00;;;;;;;;5147706;27;8829;-79
2021/10/03 08:31:29;;;;;;;;;10.00;9.00;;;;;;;;5168057;27;8793;-77
2021/10/03 08:33:55;;;;;;;;;10.00;10.00;;;;;;;;5165682;27;8868;-79
2021/10/03 08:36:20;;;;;;;;;9.33;8.00;;;;;;;;5154247;27;8866;-78
2021/10/03 08:38:45;;;;;;;;;10.67;10.67;;;;;;;;5135763;27;8827;-79
2021/10/03 08:41:11;;;;;;;;;10.67;9.67;;;;;;;;5135963;27;8816;-80
2021/10/03 08:43:37;;;;;;;;;10.33;9.67;;;;;;;;5122438;27;8857;-79
2021/10/03 08:46:02;;;;;;;;;12.00;11.00;;;;;;;;5116294;27;8799;-79
2021/10/03 08:48:28;;;;;;;;;8.67;7.67;;;;;;;;5116350;27;9590;-79
2021/10/03 08:50:53;;;;;;;;;10.67;10.67;;;;;;;;5116893;27;8813;-78
2021/10/03 08:53:18;;;;;;;;;9.33;8.67;;;;;;;;5117709;27;8853;-79
2021/10/03 08:55:44;;;;;;;;;12.00;11.00;;;;;;;;5117230;27;8799;-79
2021/10/03 08:58:09;;;;;;;;;6.00;6.00;;;;;;;;5116622;27;8861;-80
2021/10/03 09:00:43;;;;;;;;;6.00;6.00;;;;;;;;5116321;27;8857;-80
2021/10/03 09:03:08;;;;;;;;;5.50;5.50;;;;;;;;5117113;27;8771;-79
2021/10/03 09:05:33;;;;;;;;;5.00;5.00;;;;;;;;5118550;27;8829;-80
2021/10/03 09:08:09;;;;;;;;;2.00;2.00;;;;;;;;5116853;27;8791;-78
2021/10/03 09:10:46;;;;;;;;;3.00;3.00;;;;;;;;5115449;28;8780;-78
2021/10/03 09:13:11;;;;;;;;;3.75;2.50;;;;;;;;5116112;28;8810;-79
2021/10/03 09:15:36;;;;;;;;;2.67;2.67;;;;;;;;5116499;27;8821;-79
2021/10/03 09:18:01;;;;;;;;;3.00;2.67;;;;;;;;5116004;27;8851;-79
2021/10/03 09:20:28;;;;;;;;;2.00;2.00;;;;;;;;5116621;27;8890;-78
2021/10/03 09:22:56;;;;;;;;;2.00;2.00;;;;;;;;5116211;27;8805;-78
2021/10/03 09:25:35;;;;;;;;;5.75;4.00;;;;;;;;5116673;27;8779;-78
2021/10/03 09:28:02;;;;;;;;;1.25;1.25;;;;;;;;5116268;27;9801;-78
2021/10/03 09:30:27;;;;;;;;;2.25;2.00;;;;;;;;5135866;27;8801;-79
2021/10/03 09:32:56;;;;;;;;;3.00;3.00;;;;;;;;5140296;27;8820;-79
2021/10/03 09:35:29;;;;;;;;;4.00;4.00;;;;;;;;5134447;27;8800;-78
2021/10/03 09:37:55;;;;;;;;;2.75;2.75;;;;;;;;5138246;27;8859;-77
2021/10/03 09:40:21;;;;;;;;;2.00;1.75;;;;;;;;5140123;27;8752;-79
2021/10/03 09:42:59;;;;;;;;;2.00;2.00;;;;;;;;5140336;27;8800;-78
2021/10/03 09:45:25;;;;;;;;;2.75;1.50;;;;;;;;5139792;27;8819;-78
2021/10/03 09:48:17;;;;;;;;;1.00;1.00;;;;;;;;5138812;27;8797;-82
2021/10/03 09:50:42;;;;;;;;;2.00;2.00;;;;;;;;5122552;27;9651;-79
2021/10/03 09:53:08;;;;;;;;;1.00;0.00;;;;;;;;5127660;27;8854;-79
2021/10/03 09:55:34;;;;;;;;;1.00;1.00;;;;;;;;5130784;27;8788;-79
2021/10/03 09:57:59;;;;;;;;;2.00;2.00;;;;;;;;5129622;27;8907;-79
2021/10/03 10:00:26;;;;;;;;;0.00;0.00;;;;;;;;5126997;27;8822;-78
2021/10/03 10:02:51;;;;;;;;;0.75;0.75;;;;;;;;5129538;27;8841;-79
2021/10/03 10:05:24;;;;;;;;;1.00;1.00;;;;;;;;5136721;27;8891;-81
2021/10/03 10:07:50;;;;;;;;;0.00;0.00;;;;;;;;5130543;27;8819;-79
2021/10/03 10:10:15;;;;;;;;;0.00;0.00;;;;;;;;5122229;27;8866;-79
2021/10/03 10:12:50;;;;;;;;;1.00;1.00;;;;;;;;5120926;28;8818;-81
2021/10/03 10:15:20;;;;;;;;;1.00;1.00;;;;;;;;5121218;27;8787;-83
2021/10/03 10:17:45;;;;;;;;;0.00;0.00;;;;;;;;5129990;27;8833;-79
2021/10/03 10:20:13;;;;;;;;;0.00;0.00;;;;;;;;5142670;27;8832;-79
2021/10/03 10:22:38;;;;;;;;;0.00;0.00;;;;;;;;5139972;27;8781;-78
2021/10/03 10:25:22;;;;;;;;;0.00;0.00;;;;;;;;5140553;27;8838;-78
2021/10/03 10:27:48;;;;;;;;;0.25;0.25;;;;;;;;5124446;27;8791;-81
2021/10/03 10:30:14;;;;;;;;;0.67;0.67;;;;;;;;5133845;27;8842;-79
2021/10/03 10:33:06;;;;;;;;;0.00;0.00;;;;;;;;5143734;27;8800;-78
2021/10/03 10:35:32;;;;;;;;;0.00;0.00;;;;;;;;5125937;27;8807;-79
2021/10/03 10:38:00;;;;;;;;;0.00;0.00;;;;;;;;5118153;27;8811;-78
2021/10/03 10:40:29;;;;;;;;;0.00;0.00;;;;;;;;5119183;27;8724;-78
2021/10/03 10:42:54;;;;;;;;;0.00;0.00;;;;;;;;5128281;27;8807;-79
2021/10/03 10:45:49;;;;;;;;;0.00;0.00;;;;;;;;5133491;27;8801;-78
2021/10/03 10:48:15;;;;;;;;;0.00;0.00;;;;;;;;5138937;27;8781;-80
2021/10/03 10:51:00;;;;;;;;;0.00;0.00;;;;;;;;5138439;27;8885;-79
2021/10/03 10:53:25;;;;;;;;;0.00;0.00;;;;;;;;5131526;27;8863;-80
2021/10/03 10:56:09;;;;;;;;;0.00;0.00;;;;;;;;5133392;27;8823;-79
2021/10/03 10:58:36;;;;;;;;;0.00;0.00;;;;;;;;5134296;27;8843;-80
2021/10/03 11:01:03;;;;;;;;;0.00;0.00;;;;;;;;5138920;27;8780;-78
2021/10/03 11:03:44;;;;;;;;;0.00;0.00;;;;;;;;5139503;27;8818;-79
2021/10/03 11:06:13;;;;;;;;;0.00;0.00;;;;;;;;5139228;27;8776;-77
2021/10/03 11:08:59;;;;;;;;;0.00;0.00;;;;;;;;5134392;27;9692;-80
2021/10/03 11:11:29;;;;;;;;;0.00;0.00;;;;;;;;5121534;27;8826;-79
2021/10/03 11:14:17;;;;;;;;;0.00;0.00;;;;;;;;5138868;27;9711;-78
2021/10/03 11:16:46;;;;;;;;;0.00;0.00;;;;;;;;5138639;27;8818;-79
2021/10/03 11:19:21;;;;;;;;;0.00;0.00;;;;;;;;5139370;27;8798;-78
2021/10/03 11:21:50;;;;;;;;;0.00;0.00;;;;;;;;5130029;27;8726;-79
2021/10/03 11:24:16;;;;;;;;;0.00;0.00;;;;;;;;5128533;27;8819;-79
2021/10/03 11:26:45;;;;;;;;;0.25;0.25;;;;;;;;5136613;27;8821;-79
2021/10/03 11:29:10;;;;;;;;;0.50;0.50;;;;;;;;5138797;27;8899;-79
2021/10/03 11:31:44;;;;;;;;;0.00;0.00;;;;;;;;5159158;27;8782;-79
2021/10/03 11:34:23;;;;;;;;;0.00;0.00;;;;;;;;5160617;27;8809;-79
2021/10/03 11:36:49;;;;;;;;;0.00;0.00;;;;;;;;5142641;27;8804;-80
2021/10/03 11:39:14;;;;;;;;;0.00;0.00;;;;;;;;5135150;27;8828;-79
2021/10/03 11:41:49;;;;;;;;;0.00;0.00;;;;;;;;5121212;27;9635;-79
2021/10/03 11:44:18;;;;;;;;;0.00;0.00;;;;;;;;5129774;27;8761;-81
2021/10/03 11:46:57;;;;;;;;;0.00;0.00;;;;;;;;5124326;27;9718;-80
2021/10/03 11:49:29;;;;;;;;;0.75;0.00;;;;;;;;5117533;27;8795;-80
2021/10/03 11:51:55;;;;;;;;;0.50;0.50;;;;;;;;5120871;27;8837;-80
2021/10/03 11:54:39;;;;;;;;;1.00;1.00;;;;;;;;5119960;27;8779;-81
2021/10/03 11:57:18;;;;;;;;;0.25;0.00;;;;;;;;5116765;27;8795;-79
2021/10/03 11:59:44;;;;;;;;;0.00;0.00;;;;;;;;5115358;27;8835;-79
2021/10/03 12:02:17;;;;;;;;;0.00;0.00;;;;;;;;5118852;27;8889;-78
2021/10/03 12:04:55;;;;;;;;;0.00;0.00;;;;;;;;5119405;27;8810;-79
2021/10/03 12:07:21;;;;;;;;;0.25;0.00;;;;;;;;5125157;27;8841;-78
2021/10/03 12:09:53;;;;;;;;;1.00;1.00;;;;;;;;5119749;27;8822;-80
2021/10/03 12:12:18;;;;;;;;;0.00;0.00;;;;;;;;5123038;27;8781;-79
2021/10/03 12:14:44;;;;;;;;;0.00;0.00;;;;;;;;5125507;27;8834;-78
2021/10/03 12:17:09;;;;;;;;;0.00;0.00;;;;;;;;5117038;27;8847;-78
2021/10/03 12:19:55;;;;;;;;;1.75;1.75;;;;;;;;5115773;27;8831;-80
2021/10/03 12:22:20;;;;;;;;;0.75;0.75;;;;;;;;5117130;27;8779;-81
2021/10/03 12:24:54;;;;;;;;;1.00;1.00;;;;;;;;5123169;27;8829;-80
2021/10/03 12:27:23;;;;;;;;;0.00;0.00;;;;;;;;5125504;27;9848;-79
2021/10/03 12:29:55;;;;;;;;;1.00;1.00;;;;;;;;5123757;27;8794;-79
2021/10/03 12:32:23;;;;;;;;;0.00;0.00;;;;;;;;5114814;27;8787;-79
2021/10/03 12:34:54;;;;;;;;;1.00;1.00;;;;;;;;5117501;27;8777;-81
2021/10/03 12:37:20;;;;;;;;;0.00;0.00;;;;;;;;5115858;27;8810;-83
2021/10/03 12:39:51;;;;;;;;;0.75;0.75;;;;;;;;5120925;27;8806;-81
2021/10/03 12:42:18;;;;;;;;;0.50;0.50;;;;;;;;5116128;27;8868;-80
2021/10/03 12:44:44;;;;;;;;;0.25;0.25;;;;;;;;5127234;27;8775;-81
2021/10/03 12:47:11;;;;;;;;;0.25;0.25;;;;;;;;5115515;27;8787;-80
2021/10/03 12:49:37;;;;;;;;;1.00;1.00;;;;;;;;5114977;27;8799;-83
2021/10/03 12:52:03;;;;;;;;;0.00;0.00;;;;;;;;5117548;27;8945;-78
2021/10/03 12:54:29;;;;;;;;;0.00;0.00;;;;;;;;5126244;27;8784;-78
2021/10/03 12:56:56;;;;;;;;;2.00;0.00;;;;;;;;5117223;27;8799;-81
2021/10/03 12:59:21;;;;;;;;;1.00;1.00;;;;;;;;5127286;27;8808;-79
2021/10/03 13:01:47;;;;;;;;;0.00;0.00;;;;;;;;5122310;27;8843;-78
2021/10/03 13:04:13;;;;;;;;;0.00;0.00;;;;;;;;5119067;27;8841;-79
2021/10/03 13:06:39;;;;;;;;;1.75;0.75;;;;;;;;5114802;27;8779;-79
2021/10/03 13:09:04;;;;;;;;;0.33;0.33;;;;;;;;5128661;27;8809;-78
2021/10/03 13:11:29;;;;;;;;;1.00;1.00;;;;;;;;5120759;27;9396;-79
2021/10/03 13:13:54;;;;;;;;;1.00;0.67;;;;;;;;5120272;27;8899;-78
2021/10/03 13:16:19;;;;;;;;;0.00;0.00;;;;;;;;5119679;27;8847;-79
2021/10/03 13:18:45;;;;;;;;;1.00;1.00;;;;;;;;5119179;27;8827;-81
2021/10/03 13:21:10;;;;;;;;;1.00;1.00;;;;;;;;5127020;27;8859;-81
2021/10/03 13:23:36;;;;;;;;;1.67;1.67;;;;;;;;5124627;27;8835;-82
2021/10/03 13:26:02;;;;;;;;;1.75;1.00;;;;;;;;5118216;27;9302;-81
2021/10/03 13:28:30;;;;;;;;;1.00;1.00;;;;;;;;5120417;27;8841;-81
2021/10/03 13:30:56;;;;;;;;;0.00;0.00;;;;;;;;5120871;27;9835;-80
2021/10/03 13:33:21;;;;;;;;;0.33;0.33;;;;;;;;5120119;27;8921;-80
2021/10/03 13:35:46;;;;;;;;;0.33;0.33;;;;;;;;5121366;27;8848;-79
2021/10/03 13:38:13;;;;;;;;;0.00;0.00;;;;;;;;5118903;27;9501;-80
2021/10/03 13:40:38;;;;;;;;;0.25;0.00;;;;;;;;5122183;27;8792;-80
2021/10/03 13:43:04;;;;;;;;;0.67;0.00;;;;;;;;5121078;27;8791;-80
2021/10/03 13:45:30;;;;;;;;;0.00;0.00;;;;;;;;5122231;27;8736;-80
2021/10/03 13:47:55;;;;;;;;;0.00;0.00;;;;;;;;5127518;27;9558;-81
2021/10/03 13:50:20;;;;;;;;;0.00;0.00;;;;;;;;5121080;27;8818;-82
2021/10/03 13:52:45;;;;;;;;;0.00;0.00;;;;;;;;5126267;27;8806;-82
2021/10/03 13:55:10;;;;;;;;;0.00;0.00;;;;;;;;5126212;27;8807;-82
2021/10/03 13:57:36;;;;;;;;;0.00;0.00;;;;;;;;5119487;27;8814;-80
2021/10/03 14:00:02;;;;;;;;;1.00;0.00;;;;;;;;5121698;27;8843;-81
2021/10/03 14:02:28;;;;;;;;;0.00;0.00;;;;;;;;5119352;27;9685;-80
2021/10/03 14:04:53;;;;;;;;;0.00;0.00;;;;;;;;5123496;27;8862;-80
2021/10/03 14:07:18;;;;;;;;;0.00;0.00;;;;;;;;5116865;27;9558;-80
2021/10/03 14:09:43;;;;;;;;;0.00;0.00;;;;;;;;5118007;27;8988;-79
2021/10/03 14:12:09;;;;;;;;;1.00;0.00;;;;;;;;5117026;27;8830;-82
2021/10/03 14:14:34;;;;;;;;;0.00;0.00;;;;;;;;5118313;27;8813;-80
2021/10/03 14:16:59;;;;;;;;;2.00;0.00;;;;;;;;5117804;27;8854;-81
2021/10/03 14:19:24;;;;;;;;;0.00;0.00;;;;;;;;5119761;27;8927;-80
2021/10/03 14:21:50;;;;;;;;;0.00;0.00;;;;;;;;5120158;27;9648;-79
2021/10/03 14:24:17;;;;;;;;;4.00;4.00;;;;;;;;5118646;27;8807;-79
2021/10/03 14:26:43;;;;;;;;;0.00;0.00;;;;;;;;5124675;27;8807;-79
2021/10/03 14:29:08;;;;;;;;;2.67;2.67;;;;;;;;5118179;27;8817;-79
2021/10/03 14:31:33;;;;;;;;;0.00;0.00;;;;;;;;5123729;27;8830;-79
2021/10/03 14:33:59;;;;;;;;;0.00;0.00;;;;;;;;5119472;27;8819;-79
2021/10/03 14:36:24;;;;;;;;;1.00;1.00;;;;;;;;5115885;27;8837;-78
2021/10/03 14:38:49;;;;;;;;;1.00;1.00;;;;;;;;5118609;27;8898;-81
2021/10/03 14:41:15;;;;;;;;;0.00;0.00;;;;;;;;5117671;27;8815;-79
2021/10/03 14:43:40;;;;;;;;;0.00;0.00;;;;;;;;5127327;27;8843;-79
2021/10/03 14:46:05;;;;;;;;;0.00;0.00;;;;;;;;5118772;27;8899;-78
2021/10/03 14:48:31;;;;;;;;;0.67;0.00;;;;;;;;5118831;27;8830;-78